Time;durP1;ratioP1;P1;durP2;ratioP2;P2;SDS_P1;SDS_P2;PMS_P1;PMS_P2;Temp;Humidity;BMP_temperature;BMP_pressure;BME280_temperature;BME280_humidity;BME280_pressure;Samples;Min_cycle;Max_cycle;Signal;HPM_P1;HPM_P2
2022/08/17 00:00:31;;;;;;;6.82;6.22;;;22.50;94.70;;;;;;4868702;29;20488;-80
2022/08/17 00:03:03;;;;;;;9.30;8.35;;;22.60;94.70;;;;;;4864625;29;20041;-79
2022/08/17 00:05:33;;;;;;;8.52;7.72;;;22.60;94.70;;;;;;4850818;29;20041;-80
2022/08/17 00:08:00;;;;;;;9.50;8.60;;;22.60;94.60;;;;;;4823610;29;20052;-81
2022/08/17 00:10:26;;;;;;;7.15;6.45;;;22.60;94.70;;;;;;4840566;29;20041;-81
2022/08/17 00:12:52;;;;;;;7.45;6.75;;;22.60;94.70;;;;;;4850084;29;20049;-79
2022/08/17 00:15:20;;;;;;;8.57;7.72;;;22.60;94.60;;;;;;4832772;29;20025;-80
2022/08/17 00:17:49;;;;;;;12.07;10.25;;;22.60;94.70;;;;;;4860565;29;20045;-79
2022/08/17 00:20:16;;;;;;;10.05;9.07;;;22.60;94.70;;;;;;4847560;29;20428;-80
2022/08/17 00:22:43;;;;;;;9.38;8.45;;;22.60;94.70;;;;;;4836995;29;20025;-79
2022/08/17 00:25:15;;;;;;;9.07;8.15;;;22.60;94.80;;;;;;4851367;29;20049;-81
2022/08/17 00:27:41;;;;;;;9.95;9.05;;;22.60;94.80;;;;;;4851398;29;20482;-81
2022/08/17 00:30:10;;;;;;;10.80;9.65;;;22.60;94.80;;;;;;4855846;29;20038;-80
2022/08/17 00:32:42;;;;;;;13.40;11.98;;;22.60;94.90;;;;;;4848579;29;20042;-79
2022/08/17 00:35:10;;;;;;;11.68;10.52;;;22.60;95.00;;;;;;4836990;29;20041;-80
2022/08/17 00:37:36;;;;;;;11.75;10.52;;;22.60;95.10;;;;;;4873185;29;20052;-80
2022/08/17 00:40:04;;;;;;;11.85;10.65;;;22.60;95.20;;;;;;4839046;29;20045;-81
2022/08/17 00:42:30;;;;;;;11.70;10.60;;;22.50;95.20;;;;;;4839165;29;20037;-79
2022/08/17 00:44:58;;;;;;;12.82;11.63;;;22.50;95.30;;;;;;4850142;29;20042;-81
2022/08/17 00:47:24;;;;;;;11.88;10.52;;;22.50;95.40;;;;;;4857951;29;20143;-80
2022/08/17 00:49:51;;;;;;;12.15;10.95;;;22.50;95.60;;;;;;4851343;29;20041;-80
2022/08/17 00:52:21;;;;;;;13.75;12.30;;;22.40;95.60;;;;;;4869947;29;20052;-79
2022/08/17 00:54:52;;;;;;;12.07;10.88;;;22.40;95.80;;;;;;4867624;29;20033;-79
2022/08/17 00:57:23;;;;;;;10.30;9.25;;;22.40;95.90;;;;;;4873181;29;20037;-81
2022/08/17 00:59:53;;;;;;;12.95;11.65;;;22.40;95.90;;;;;;4855712;29;20049;-80
2022/08/17 01:02:20;;;;;;;10.98;9.88;;;22.40;96.00;;;;;;4855831;29;20044;-80
2022/08/17 01:04:49;;;;;;;12.73;11.43;;;22.40;96.00;;;;;;4863507;29;20045;-79
2022/08/17 01:07:18;;;;;;;11.65;10.65;;;22.30;96.10;;;;;;4877809;29;20040;-79
2022/08/17 01:09:44;;;;;;;11.52;9.68;;;22.30;96.10;;;;;;4887931;23;20551;-86
2022/08/17 01:12:11;;;;;;;11.68;10.48;;;22.30;96.10;;;;;;4849629;29;20040;-86
2022/08/17 01:14:38;;;;;;;13.50;12.15;;;22.30;96.20;;;;;;4848041;29;20548;-86
2022/08/17 01:17:06;;;;;;;13.73;12.32;;;22.30;96.20;;;;;;4859954;29;20044;-85
2022/08/17 01:19:35;;;;;;;12.40;11.20;;;22.30;96.30;;;;;;4875044;29;20033;-85
2022/08/17 01:22:10;;;;;;;14.68;13.20;;;22.30;96.30;;;;;;4840839;29;20061;-85
2022/08/17 01:24:44;;;;;;;14.27;12.85;;;22.30;96.40;;;;;;4855497;29;20176;-85
2022/08/17 01:27:12;;;;;;;11.73;10.52;;;22.30;96.40;;;;;;4873182;29;20078;-83
2022/08/17 01:29:42;;;;;;;12.63;11.43;;;22.30;96.40;;;;;;4854213;29;20042;-84
2022/08/17 01:32:09;;;;;;;18.60;16.60;;;22.30;96.40;;;;;;4859644;29;20045;-84
2022/08/17 01:34:35;;;;;;;15.68;14.07;;;22.30;96.50;;;;;;4839916;29;20053;-84
2022/08/17 01:37:02;;;;;;;12.52;11.30;;;22.30;96.50;;;;;;4861729;29;20045;-83
2022/08/17 01:39:41;;;;;;;14.80;12.45;;;22.30;96.40;;;;;;4861797;29;20427;-83
2022/08/17 01:42:21;;;;;;;14.00;11.32;;;22.30;96.40;;;;;;4854376;29;20045;-85
2022/08/17 01:44:51;;;;;;;13.68;12.35;;;22.30;96.40;;;;;;4857746;29;20048;-85
2022/08/17 01:47:18;;;;;;;16.00;14.30;;;22.30;96.40;;;;;;4867871;29;20041;-84
2022/08/17 01:49:44;;;;;;;13.70;12.45;;;22.30;96.50;;;;;;4847367;29;20392;-85
2022/08/17 01:52:11;;;;;;;10.50;9.45;;;22.30;96.40;;;;;;4847088;29;21432;-85
2022/08/17 01:54:40;;;;;;;9.52;8.63;;;22.30;96.40;;;;;;4871709;29;21157;-83
2022/08/17 01:57:07;;;;;;;9.50;8.63;;;22.30;96.50;;;;;;4879678;29;20045;-85
2022/08/17 01:59:33;;;;;;;7.93;7.22;;;22.20;96.60;;;;;;4878600;29;20316;-84
2022/08/17 02:01:59;;;;;;;11.48;10.25;;;22.10;96.60;;;;;;4845862;29;20049;-87
2022/08/17 02:04:26;;;;;;;10.70;9.70;;;22.10;96.70;;;;;;4864578;29;20037;-85
2022/08/17 02:06:52;;;;;;;12.40;11.15;;;22.00;96.70;;;;;;4861936;29;20053;-86
2022/08/17 02:09:23;;;;;;;12.75;11.15;;;22.00;96.90;;;;;;4854737;29;20051;-84
2022/08/17 02:11:50;;;;;;;11.80;10.57;;;21.90;97.00;;;;;;4851596;29;20042;-85
2022/08/17 02:14:16;;;;;;;12.05;10.90;;;21.90;97.10;;;;;;4858975;29;20065;-84
2022/08/17 02:16:43;;;;;;;13.45;12.15;;;21.80;97.20;;;;;;4862057;29;20144;-85
2022/08/17 02:19:12;;;;;;;16.77;15.20;;;21.80;97.30;;;;;;4867827;29;20056;-87
2022/08/17 02:21:41;;;;;;;12.32;11.23;;;21.70;97.60;;;;;;4878135;29;20047;-85
2022/08/17 02:24:11;;;;;;;13.63;12.27;;;21.70;97.60;;;;;;4862682;29;20034;-85
2022/08/17 02:26:38;;;;;;;13.45;12.15;;;21.60;97.80;;;;;;4881487;29;20022;-85
2022/08/17 02:29:04;;;;;;;11.80;10.70;;;21.50;97.90;;;;;;4887285;29;20045;-86
2022/08/17 02:31:31;;;;;;;12.43;11.23;;;21.50;98.00;;;;;;4853769;29;20045;-86
2022/08/17 02:33:57;;;;;;;11.30;10.30;;;21.50;98.00;;;;;;4862305;29;20050;-84
2022/08/17 02:36:23;;;;;;;16.23;14.63;;;21.40;98.10;;;;;;4833562;29;20085;-84
2022/08/17 02:38:49;;;;;;;12.55;11.32;;;21.40;98.20;;;;;;4861284;29;20040;-86
2022/08/17 02:41:16;;;;;;;13.25;11.90;;;21.40;98.20;;;;;;4856393;29;20048;-86
2022/08/17 02:43:42;;;;;;;16.58;14.93;;;21.40;98.30;;;;;;4858147;29;20041;-84
2022/08/17 02:46:08;;;;;;;16.48;14.77;;;21.30;98.40;;;;;;4843948;29;20053;-83
2022/08/17 02:48:34;;;;;;;11.43;10.32;;;21.20;98.50;;;;;;4843336;29;20420;-83
2022/08/17 02:51:00;;;;;;;13.68;12.48;;;21.30;98.50;;;;;;4837734;29;20056;-86
2022/08/17 02:53:27;;;;;;;14.07;12.80;;;21.20;98.60;;;;;;4849125;29;20025;-86
2022/08/17 02:55:53;;;;;;;11.10;10.13;;;21.20;98.70;;;;;;4861435;29;20052;-83
2022/08/17 02:58:20;;;;;;;12.30;11.10;;;21.10;98.60;;;;;;4856831;29;20400;-84
2022/08/17 03:00:47;;;;;;;16.42;14.82;;;21.10;98.70;;;;;;4870018;29;20445;-85
2022/08/17 03:03:18;;;;;;;14.43;12.88;;;21.10;98.80;;;;;;4848584;29;20223;-86
2022/08/17 03:05:47;;;;;;;16.00;14.23;;;21.00;98.90;;;;;;4855514;29;20044;-84
2022/08/17 03:08:14;;;;;;;12.52;10.35;;;21.10;98.90;;;;;;4858258;29;20400;-85
2022/08/17 03:10:41;;;;;;;10.48;9.48;;;21.10;98.90;;;;;;4834850;29;20143;-84
2022/08/17 03:13:08;;;;;;;11.23;10.18;;;21.10;98.90;;;;;;4850033;29;20041;-86
2022/08/17 03:15:35;;;;;;;12.13;11.02;;;21.10;98.80;;;;;;4839860;29;20043;-85
2022/08/17 03:18:02;;;;;;;11.23;9.55;;;21.20;98.80;;;;;;4862234;29;21277;-85
2022/08/17 03:20:31;;;;;;;9.93;9.02;;;21.20;98.80;;;;;;4862259;29;20044;-85
2022/08/17 03:22:58;;;;;;;11.15;10.05;;;21.20;98.80;;;;;;4864232;29;20486;-84
2022/08/17 03:25:28;;;;;;;11.80;10.15;;;21.20;98.80;;;;;;4842300;29;20037;-85
2022/08/17 03:27:55;;;;;;;10.85;9.73;;;21.20;98.90;;;;;;4872918;29;20530;-85
2022/08/17 03:30:23;;;;;;;11.13;10.02;;;21.20;98.90;;;;;;4829940;29;20435;-85
2022/08/17 03:32:53;;;;;;;11.05;9.93;;;21.20;98.90;;;;;;4849948;29;20498;-85
2022/08/17 03:35:24;;;;;;;12.73;11.55;;;21.20;99.00;;;;;;4836783;29;20044;-86
2022/08/17 03:37:50;;;;;;;11.00;10.00;;;21.20;99.20;;;;;;4857015;29;20042;-85
2022/08/17 03:40:17;;;;;;;17.05;14.57;;;21.20;99.40;;;;;;4843381;29;20511;-84
2022/08/17 03:42:43;;;;;;;13.25;11.95;;;21.20;99.30;;;;;;4841699;29;20044;-85
2022/08/17 03:45:14;;;;;;;13.32;12.05;;;21.20;99.30;;;;;;4843966;29;20048;-87
2022/08/17 03:58:49;;;;;;;14.35;12.98;;;21.50;99.20;;;;;;4860262;29;20611;-85
2022/08/17 04:01:16;;;;;;;10.10;9.10;;;21.60;99.10;;;;;;4863346;29;20045;-86
2022/08/17 04:03:42;;;;;;;11.50;10.32;;;21.60;98.90;;;;;;4857926;29;20045;-86
2022/08/17 04:06:09;;;;;;;11.23;10.13;;;21.70;98.90;;;;;;4839336;29;20051;-85
2022/08/17 04:08:35;;;;;;;12.07;10.88;;;21.70;98.70;;;;;;4859664;29;20044;-84
2022/08/17 04:11:01;;;;;;;11.23;9.52;;;21.70;98.60;;;;;;4859107;29;20045;-84
2022/08/17 04:13:28;;;;;;;11.15;10.05;;;21.70;98.40;;;;;;4814792;29;20613;-85
2022/08/17 04:15:55;;;;;;;11.80;10.38;;;21.80;98.30;;;;;;4852926;29;20034;-83
2022/08/17 04:18:21;;;;;;;13.57;12.30;;;21.80;98.00;;;;;;4830484;29;20488;-85
2022/08/17 04:20:47;;;;;;;15.52;13.70;;;21.90;97.80;;;;;;4855187;29;20070;-86
2022/08/17 04:23:16;;;;;;;15.35;13.30;;;21.90;97.60;;;;;;4852081;29;20554;-86
2022/08/17 04:25:46;;;;;;;11.38;10.23;;;21.90;97.50;;;;;;4857747;29;20029;-85
2022/08/17 04:28:14;;;;;;;9.68;8.50;;;21.90;97.40;;;;;;4863607;29;20033;-85
2022/08/17 04:30:40;;;;;;;9.65;8.65;;;21.90;97.30;;;;;;4848500;29;20044;-84
2022/08/17 04:33:10;;;;;;;12.57;10.05;;;21.90;97.20;;;;;;4856165;29;20423;-84
2022/08/17 04:35:46;;;;;;;11.82;10.65;;;21.90;97.00;;;;;;4852844;29;20041;-83
2022/08/17 04:38:23;;;;;;;8.80;7.95;;;21.90;96.90;;;;;;4855758;29;20048;-84
2022/08/17 04:43:36;;;;;;;12.07;10.82;;;22.00;96.70;;;;;;4862786;29;20025;-84
2022/08/17 04:46:05;;;;;;;11.70;10.48;;;22.00;96.50;;;;;;4880822;29;20032;-82
2022/08/17 04:48:36;;;;;;;7.30;6.53;;;22.00;96.50;;;;;;4883355;29;20725;-85
2022/08/17 04:51:05;;;;;;;10.50;9.60;;;22.00;96.40;;;;;;4876379;29;20041;-87
2022/08/17 04:53:32;;;;;;;11.27;9.98;;;22.10;96.30;;;;;;4830099;29;20052;-83
2022/08/17 04:55:58;;;;;;;10.85;9.93;;;22.10;96.20;;;;;;4836922;29;20032;-83
2022/08/17 04:58:27;;;;;;;11.50;9.88;;;22.10;96.10;;;;;;4860326;29;20052;-82
2022/08/17 05:00:59;;;;;;;9.10;8.20;;;22.10;96.00;;;;;;4851556;29;20049;-83
2022/08/17 05:03:30;;;;;;;8.13;7.38;;;22.10;96.00;;;;;;4829653;29;20057;-84
2022/08/17 05:06:25;;;;;;;8.23;5.65;;;22.10;95.90;;;;;;4838109;29;20053;-83
2022/08/17 05:08:57;;;;;;;4.93;4.47;;;22.20;95.90;;;;;;4836878;29;20049;-82
2022/08/17 05:11:27;;;;;;;7.03;5.80;;;22.20;95.80;;;;;;4857121;29;20037;-82
2022/08/17 05:14:10;;;;;;;;;;;;;;;;;;;;;
2022/08/17 05:16:37;;;;;;;6.22;5.63;;;22.20;95.70;;;;;;4856480;29;20038;-82
2022/08/17 05:19:09;;;;;;;7.72;6.40;;;22.30;95.70;;;;;;4840767;29;20045;-82
2022/08/17 05:21:37;;;;;;;8.52;6.88;;;22.30;95.60;;;;;;4839124;29;20037;-83
2022/08/17 05:24:04;;;;;;;12.13;10.93;;;22.30;95.50;;;;;;4849638;29;20504;-84
2022/08/17 05:26:31;;;;;;;11.95;10.80;;;22.40;95.50;;;;;;4865471;29;20044;-83
2022/08/17 05:28:58;;;;;;;12.60;11.00;;;22.40;95.60;;;;;;4843417;29;20498;-81
2022/08/17 05:31:24;;;;;;;11.57;10.48;;;22.30;95.60;;;;;;4858895;29;20045;-81
2022/08/17 05:33:52;;;;;;;11.80;10.60;;;22.30;95.80;;;;;;4855389;29;20492;-82
2022/08/17 05:36:29;;;;;;;9.27;8.38;;;22.20;95.90;;;;;;4862031;29;20033;-83
2022/08/17 05:39:08;;;;;;;13.15;10.02;;;22.10;96.00;;;;;;4860806;29;20060;-82
2022/08/17 05:41:38;;;;;;;14.73;13.25;;;22.10;96.10;;;;;;4860392;29;21636;-82
2022/08/17 05:44:04;;;;;;;11.27;10.10;;;22.00;96.20;;;;;;4868063;29;20034;-81
2022/08/17 05:50:55;;;;;;;9.45;8.50;;;22.00;96.30;;;;;;4834265;29;20057;-84
2022/08/17 05:53:44;;;;;;;9.80;8.90;;;22.00;96.30;;;;;;4860371;29;20056;-89
2022/08/17 05:56:35;;;;;;;9.45;8.32;;;22.00;96.30;;;;;;4846419;29;20665;-85
2022/08/17 05:59:16;;;;;;;10.07;9.05;;;22.00;96.30;;;;;;4847086;29;20127;-86
2022/08/17 06:01:52;;;;;;;8.02;7.35;;;22.00;96.40;;;;;;4866018;29;20057;-84
2022/08/17 06:04:38;;;;;;;9.48;8.52;;;22.00;96.50;;;;;;4848587;29;20033;-88
2022/08/17 06:07:45;;;;;;;10.02;9.13;;;22.10;96.50;;;;;;4875610;29;20040;-84
2022/08/17 06:10:25;;;;;;;12.75;11.50;;;22.10;96.60;;;;;;4836954;29;20049;-85
2022/08/17 06:13:30;;;;;;;11.82;10.70;;;22.10;96.70;;;;;;4858627;29;20052;-83
2022/08/17 06:16:14;;;;;;;11.60;10.50;;;22.20;96.70;;;;;;4878704;29;20044;-85
2022/08/17 06:19:13;;;;;;;11.60;10.43;;;22.20;97.00;;;;;;4876964;29;20430;-85
2022/08/17 06:21:51;;;;;;;12.75;11.02;;;22.20;96.90;;;;;;4868142;29;20033;-85
2022/08/17 06:24:23;;;;;;;11.57;10.48;;;22.30;97.00;;;;;;4845930;29;20468;-84
2022/08/17 06:27:19;;;;;;;10.77;9.68;;;22.30;97.00;;;;;;4842338;29;20049;-86
2022/08/17 06:30:04;;;;;;;11.85;10.80;;;22.30;97.00;;;;;;4833987;29;20045;-85
2022/08/17 06:32:41;;;;;;;18.45;16.60;;;22.30;97.00;;;;;;4850235;29;20064;-86
2022/08/17 06:35:17;;;;;;;15.63;14.05;;;22.30;97.20;;;;;;4837224;29;20056;-85
2022/08/17 06:38:04;;;;;;;13.15;11.95;;;22.20;97.40;;;;;;4848431;29;20050;-85
2022/08/17 06:40:58;;;;;;;14.18;12.63;;;22.20;97.50;;;;;;4859439;29;20044;-85
2022/08/17 06:43:43;;;;;;;15.68;14.02;;;22.20;97.50;;;;;;4842908;29;20613;-85
2022/08/17 06:46:26;;;;;;;17.88;16.02;;;22.20;97.60;;;;;;4859124;29;20048;-86
2022/08/17 06:49:08;;;;;;;14.20;12.85;;;22.40;97.70;;;;;;4844720;29;20041;-84
2022/08/17 06:51:45;;;;;;;15.73;14.32;;;22.50;97.60;;;;;;4870137;29;20044;-86
2022/08/17 06:54:20;;;;;;;13.23;11.93;;;22.70;97.40;;;;;;4854379;29;20056;-84
2022/08/17 06:57:00;;;;;;;16.88;14.63;;;22.70;97.30;;;;;;4857350;29;20041;-87
2022/08/17 06:59:54;;;;;;;22.45;20.35;;;22.80;97.30;;;;;;4860356;29;20034;-84
2022/08/17 07:02:59;;;;;;;15.57;14.00;;;22.80;97.40;;;;;;4862589;29;20512;-87
2022/08/17 07:05:39;;;;;;;16.52;14.70;;;22.80;97.40;;;;;;4873296;29;20045;-84
2022/08/17 07:08:22;;;;;;;13.45;12.18;;;22.90;97.40;;;;;;4844305;29;20052;-85
2022/08/17 07:10:54;;;;;;;14.35;12.85;;;23.00;97.40;;;;;;4842410;23;20069;-81
2022/08/17 07:13:36;;;;;;;17.35;15.75;;;23.00;97.20;;;;;;4813522;29;20227;-80
2022/08/17 07:16:14;;;;;;;14.20;12.55;;;23.10;97.20;;;;;;4817567;29;20042;-80
2022/08/17 07:18:42;;;;;;;15.85;14.35;;;23.20;97.10;;;;;;4821470;29;20281;-81
2022/08/17 07:21:20;;;;;;;17.58;15.23;;;23.20;97.10;;;;;;4829569;29;20038;-80
2022/08/17 07:24:02;;;;;;;16.45;15.05;;;23.20;97.20;;;;;;4796460;29;20077;-80
2022/08/17 07:26:28;;;;;;;17.27;15.13;;;23.00;97.90;;;;;;4800351;29;20050;-81
2022/08/17 07:28:55;;;;;;;26.13;23.63;;;22.60;98.40;;;;;;4797397;29;20035;-82
2022/08/17 07:31:24;;;;;;;16.88;15.30;;;22.30;99.50;;;;;;4811166;29;20042;-80
2022/08/17 07:34:05;;;;;;;17.50;15.82;;;22.00;99.90;;;;;;4809941;29;20034;-81
2022/08/17 07:36:32;;;;;;;18.38;16.48;;;21.90;99.90;;;;;;4811016;29;20630;-81
2022/08/17 07:39:01;;;;;;;18.30;16.70;;;21.90;99.90;;;;;;4799824;29;20042;-81
2022/08/17 07:41:32;;;;;;;20.27;18.25;;;22.00;99.90;;;;;;4815166;29;20069;-81
2022/08/17 07:43:59;;;;;;;19.77;17.90;;;22.10;99.90;;;;;;4842870;29;20054;-80
2022/08/17 07:49:32;;;;;;;15.15;13.88;;;22.30;99.90;;;;;;4816704;29;20042;-83
2022/08/17 07:52:05;;;;;;;21.35;19.23;;;22.60;99.90;;;;;;4801592;29;20426;-83
2022/08/17 07:54:40;;;;;;;23.38;20.98;;;22.70;99.90;;;;;;4816426;29;20031;-83
2022/08/17 07:57:10;;;;;;;27.10;24.50;;;22.80;99.90;;;;;;4804521;29;20507;-83
2022/08/17 07:59:42;;;;;;;25.88;23.30;;;22.80;99.90;;;;;;4827152;29;20043;-82
2022/08/17 08:02:40;;;;;;;18.90;17.05;;;22.80;99.90;;;;;;4820069;29;20035;-81
2022/08/17 08:05:26;;;;;;;23.92;21.52;;;22.90;99.90;;;;;;4804362;29;20054;-81
2022/08/17 08:07:54;;;;;;;21.00;18.98;;;22.90;99.90;;;;;;4832407;29;20050;-81
2022/08/17 08:10:32;;;;;;;17.67;16.13;;;22.90;99.90;;;;;;4807728;29;20046;-82
2022/08/17 08:13:12;;;;;;;23.27;21.10;;;22.90;99.90;;;;;;4831910;29;20512;-81
2022/08/17 08:15:49;;;;;;;23.90;18.25;;;23.00;99.90;;;;;;4817131;29;20470;-82
2022/08/17 08:18:42;;;;;;;17.88;16.08;;;22.90;99.90;;;;;;4806852;29;20033;-80
2022/08/17 08:21:18;;;;;;;19.67;17.80;;;23.00;99.90;;;;;;4784910;29;20042;-80
2022/08/17 08:23:56;;;;;;;25.08;22.25;;;23.00;99.90;;;;;;4818191;29;20042;-81
2022/08/17 08:26:45;;;;;;;17.52;15.85;;;23.10;99.90;;;;;;4800046;29;20043;-83
2022/08/17 08:29:21;;;;;;;23.63;21.15;;;23.20;99.90;;;;;;4802435;29;20038;-81
2022/08/17 08:32:09;;;;;;;20.90;18.88;;;23.30;99.90;;;;;;4813489;29;20034;-83
2022/08/17 08:35:07;;;;;;;20.10;18.20;;;23.50;99.90;;;;;;4831173;29;20050;-83
2022/08/17 08:37:54;;;;;;;17.75;15.85;;;23.90;99.60;;;;;;4790009;29;20359;-82
2022/08/17 08:40:38;;;;;;;14.43;12.93;;;24.20;99.20;;;;;;4817700;29;20061;-84
2022/08/17 08:43:53;;;;;;;18.75;16.85;;;24.50;98.80;;;;;;4812154;29;20050;-82
2022/08/17 08:46:22;;;;;;;14.05;12.57;;;24.90;98.20;;;;;;4786280;29;20424;-83
2022/08/17 08:49:08;;;;;;;14.65;13.25;;;25.10;97.80;;;;;;4792028;29;20043;-84
2022/08/17 08:51:56;;;;;;;19.27;17.38;;;25.30;97.50;;;;;;4800787;29;20047;-83
2022/08/17 08:54:42;;;;;;;14.20;12.85;;;25.50;96.80;;;;;;4790713;29;20043;-81
2022/08/17 08:57:32;;;;;;;12.52;11.40;;;25.60;96.40;;;;;;4805446;29;20054;-83
2022/08/17 09:00:21;;;;;;;12.05;10.85;;;25.70;96.30;;;;;;4818295;29;20055;-82
2022/08/17 09:03:05;;;;;;;13.90;12.35;;;25.80;96.10;;;;;;4796361;29;20042;-81
2022/08/17 09:05:57;;;;;;;10.23;9.23;;;25.80;95.90;;;;;;4819744;29;20053;-81
2022/08/17 09:08:34;;;;;;;;;;;25.90;95.90;;;;;;4818056;29;20039;-82
2022/08/17 09:11:03;;;;;;;11.63;10.52;;;25.80;95.70;;;;;;4817776;29;22087;-80
2022/08/17 09:13:50;;;;;;;11.15;9.95;;;25.90;95.60;;;;;;4792876;29;20065;-83
2022/08/17 09:16:28;;;;;;;9.70;8.82;;;25.90;95.60;;;;;;4799662;29;20051;-81
2022/08/17 09:19:18;;;;;;;9.90;9.10;;;25.90;95.50;;;;;;4817654;29;20050;-84
2022/08/17 09:21:56;;;;;;;10.25;9.25;;;26.00;95.40;;;;;;4784914;29;20418;-83
2022/08/17 09:24:42;;;;;;;10.45;9.55;;;26.00;95.20;;;;;;4813843;29;20043;-83
2022/08/17 09:27:18;;;;;;;11.30;10.30;;;25.90;95.20;;;;;;4808267;29;20062;-85
2022/08/17 09:29:50;;;;;;;13.30;12.07;;;25.90;95.20;;;;;;4827435;29;20303;-85
2022/08/17 09:32:37;;;;;;;9.50;8.60;;;26.00;95.10;;;;;;4836760;29;20039;-85
2022/08/17 09:35:29;;;;;;;8.10;7.38;;;26.20;95.00;;;;;;4840847;29;20053;-83
2022/08/17 09:38:04;;;;;;;11.20;10.20;;;26.40;94.70;;;;;;4811177;29;20050;-83
2022/08/17 09:40:47;;;;;;;15.30;13.95;;;26.50;94.30;;;;;;4819335;29;20042;-83
2022/08/17 09:43:30;;;;;;;11.32;10.32;;;26.70;93.90;;;;;;4800184;29;20619;-83
2022/08/17 09:46:20;;;;;;;12.13;10.75;;;26.80;93.40;;;;;;4807046;29;20622;-83
2022/08/17 09:48:54;;;;;;;9.68;8.77;;;26.70;93.20;;;;;;4812405;29;20046;-82
2022/08/17 09:51:33;;;;;;;12.13;11.02;;;26.80;93.20;;;;;;4818569;29;20678;-81
2022/08/17 09:54:00;;;;;;;12.07;10.85;;;26.80;93.10;;;;;;4817810;29;20054;-82
2022/08/17 09:56:31;;;;;;;10.25;9.35;;;26.80;93.00;;;;;;4825156;29;20034;-82
2022/08/17 09:59:31;;;;;;;11.43;9.80;;;26.80;92.90;;;;;;4829425;29;20070;-82
2022/08/17 10:02:28;;;;;;;9.80;8.90;;;26.80;93.10;;;;;;4809266;29;20030;-81
2022/08/17 10:05:16;;;;;;;11.63;10.43;;;26.80;92.80;;;;;;4826044;29;20473;-82
2022/08/17 10:07:55;;;;;;;9.23;8.35;;;26.90;92.70;;;;;;4818273;29;20042;-82
2022/08/17 10:10:29;;;;;;;12.95;11.65;;;26.90;92.90;;;;;;4808642;29;20050;-84
2022/08/17 10:13:16;;;;;;;11.13;10.13;;;27.00;92.30;;;;;;4827803;29;20418;-81
2022/08/17 10:16:22;;;;;;;14.30;12.90;;;27.00;92.30;;;;;;4846135;29;20042;-82
2022/08/17 10:19:28;;;;;;;12.60;11.50;;;27.00;92.10;;;;;;4815860;29;20050;-82
2022/08/17 10:27:55;;;;;;;8.10;7.20;;;27.10;91.90;;;;;;4822335;29;20030;-81
2022/08/17 10:30:26;;;;;;;12.77;10.27;;;27.00;91.80;;;;;;4795923;29;20049;-82
2022/08/17 10:33:03;;;;;;;10.35;9.45;;;27.00;91.60;;;;;;4807440;29;20512;-83
2022/08/17 10:35:34;;;;;;;9.48;8.60;;;27.00;91.50;;;;;;4842368;29;20043;-83
2022/08/17 10:38:26;;;;;;;11.45;10.27;;;27.00;91.40;;;;;;4824918;29;20058;-82
2022/08/17 10:41:13;;;;;;;8.85;7.45;;;27.10;91.30;;;;;;4823547;29;20047;-84
2022/08/17 10:43:52;;;;;;;11.68;10.57;;;27.10;91.30;;;;;;4822491;29;20037;-83
2022/08/17 10:46:39;;;;;;;14.07;12.60;;;27.10;91.10;;;;;;4825498;29;20038;-83
2022/08/17 10:49:20;;;;;;;9.57;8.75;;;27.00;90.90;;;;;;4841679;29;20035;-84
2022/08/17 10:51:53;;;;;;;10.00;9.00;;;26.90;90.80;;;;;;4790402;29;20417;-82
2022/08/17 10:54:36;;;;;;;9.75;8.85;;;26.80;90.90;;;;;;4809141;29;20038;-84
2022/08/17 10:57:33;;;;;;;10.00;8.85;;;26.70;91.10;;;;;;4813172;29;20651;-84
2022/08/17 11:00:00;;;;;;;8.80;8.00;;;26.60;91.30;;;;;;4831721;29;20038;-84
2022/08/17 11:02:50;;;;;;;8.85;7.97;;;26.60;91.50;;;;;;4800852;29;20042;-85
2022/08/17 11:05:58;;;;;;;9.75;8.85;;;26.40;91.50;;;;;;4846770;29;20042;-85
2022/08/17 11:08:43;;;;;;;11.02;9.95;;;26.40;91.50;;;;;;4825008;29;20050;-84
2022/08/17 11:11:22;;;;;;;10.40;9.43;;;26.30;91.50;;;;;;4847536;29;20051;-83
2022/08/17 11:13:57;;;;;;;12.02;10.90;;;26.30;91.70;;;;;;4829146;29;20057;-85
2022/08/17 11:16:29;;;;;;;11.30;10.25;;;26.30;91.70;;;;;;4845598;29;20039;-85
2022/08/17 11:19:08;;;;;;;10.70;9.70;;;26.20;91.80;;;;;;4817044;29;20053;-85
2022/08/17 11:21:42;;;;;;;8.73;7.93;;;26.10;91.90;;;;;;4844213;29;20050;-85
2022/08/17 11:24:31;;;;;;;10.40;9.40;;;26.10;92.00;;;;;;4843793;29;20047;-84
2022/08/17 11:27:18;;;;;;;10.20;9.32;;;26.00;92.20;;;;;;4828831;29;20045;-83
2022/08/17 11:29:57;;;;;;;9.13;8.23;;;25.80;92.60;;;;;;4844076;29;20398;-84
2022/08/17 11:32:46;;;;;;;11.48;10.38;;;25.60;93.10;;;;;;4792921;29;20030;-84
2022/08/17 11:35:21;;;;;;;9.63;8.70;;;25.40;93.90;;;;;;4817292;29;20272;-84
2022/08/17 11:38:08;;;;;;;9.85;8.95;;;25.30;94.20;;;;;;4830275;29;20050;-84
2022/08/17 11:40:50;;;;;;;13.85;11.25;;;25.10;94.80;;;;;;4855536;29;20038;-83
2022/08/17 11:43:40;;;;;;;12.30;11.15;;;25.10;95.40;;;;;;4821531;29;20066;-84
2022/08/17 11:46:17;;;;;;;11.13;10.02;;;25.00;95.60;;;;;;4847427;29;20036;-85
2022/08/17 11:51:52;;;;;;;11.60;10.50;;;25.10;96.00;;;;;;4823832;29;20069;-84
2022/08/17 11:54:46;;;;;;;12.15;11.05;;;25.00;96.30;;;;;;4842261;29;20042;-84
2022/08/17 11:57:24;;;;;;;12.50;11.10;;;24.80;96.60;;;;;;4823536;29;20057;-84
2022/08/17 11:59:59;;;;;;;12.63;11.40;;;24.60;97.30;;;;;;4826280;29;20698;-84
2022/08/17 12:02:31;;;;;;;12.63;11.52;;;24.40;97.70;;;;;;4808055;29;20035;-83
2022/08/17 12:05:16;;;;;;;11.68;10.55;;;24.40;98.00;;;;;;4795091;29;20042;-84
2022/08/17 12:07:55;;;;;;;12.02;10.73;;;24.40;98.30;;;;;;4827098;29;20027;-83
2022/08/17 12:10:30;;;;;;;12.73;11.48;;;24.50;98.40;;;;;;4822153;29;20062;-82
2022/08/17 12:12:58;;;;;;;15.55;12.32;;;24.40;98.70;;;;;;4814883;29;20046;-83
2022/08/17 12:15:34;;;;;;;12.43;11.32;;;24.20;99.30;;;;;;4795853;29;20038;-83
2022/08/17 12:18:01;;;;;;;24.75;22.40;;;24.10;99.80;;;;;;4805977;29;20035;-83
2022/08/17 12:20:37;;;;;;;17.55;15.93;;;23.90;99.90;;;;;;4811783;29;20047;-83
2022/08/17 12:23:18;;;;;;;12.82;11.63;;;23.80;99.90;;;;;;4804579;29;20277;-82
2022/08/17 12:26:01;;;;;;;16.80;15.20;;;23.60;99.90;;;;;;4813795;29;20141;-83
2022/08/17 12:28:34;;;;;;;11.43;10.43;;;23.40;99.90;;;;;;4821531;29;20042;-83
2022/08/17 12:31:06;;;;;;;13.82;12.52;;;23.40;99.90;;;;;;4829920;29;20038;-83
2022/08/17 12:33:35;;;;;;;15.98;14.52;;;23.40;99.90;;;;;;4805836;29;20509;-83
2022/08/17 12:36:07;;;;;;;17.60;16.00;;;23.40;99.90;;;;;;4808568;29;20043;-83
2022/08/17 12:38:36;;;;;;;14.73;13.48;;;23.30;99.90;;;;;;4809660;29;20047;-82
2022/08/17 12:44:04;;;;;;;15.10;13.70;;;23.10;99.90;;;;;;4809933;29;20034;-83
2022/08/17 12:46:45;;;;;;;13.73;12.43;;;23.00;99.90;;;;;;4823615;29;20038;-83
2022/08/17 12:49:34;;;;;;;14.90;13.60;;;22.90;99.90;;;;;;4813080;29;20102;-83
2022/08/17 12:52:23;;;;;;;15.43;13.90;;;22.90;99.90;;;;;;4805521;29;20058;-82
2022/08/17 12:55:26;;;;;;;14.90;13.60;;;22.90;99.90;;;;;;4812869;29;20058;-83
2022/08/17 12:57:55;;;;;;;17.48;15.88;;;22.90;99.90;;;;;;4794467;29;20047;-83
2022/08/17 13:00:39;;;;;;;17.88;16.33;;;22.80;99.90;;;;;;4792079;29;20524;-84
2022/08/17 13:03:14;;;;;;;17.98;16.17;;;22.80;99.90;;;;;;4806369;29;20047;-83
2022/08/17 13:05:52;;;;;;;14.30;13.05;;;22.80;99.90;;;;;;4815419;29;20046;-83
2022/08/17 13:08:23;;;;;;;16.38;14.82;;;22.80;99.90;;;;;;4823041;29;20045;-83
2022/08/17 13:11:07;;;;;;;19.17;17.27;;;22.80;99.90;;;;;;4876126;23;20049;-89
2022/08/17 13:13:42;;;;;;;18.75;17.05;;;22.70;99.90;;;;;;4833920;29;20480;-89
2022/08/17 13:16:15;;;;;;;18.27;16.77;;;22.60;99.90;;;;;;4818892;29;20048;-88
2022/08/17 13:19:04;;;;;;;16.55;14.95;;;22.60;99.90;;;;;;4825927;29;20605;-89
2022/08/17 13:21:32;;;;;;;19.23;17.42;;;22.60;99.90;;;;;;4841092;29;20052;-85
2022/08/17 13:24:04;;;;;;;20.38;18.35;;;22.60;99.90;;;;;;4836403;29;20856;-87
2022/08/17 13:26:35;;;;;;;17.92;16.30;;;22.70;99.90;;;;;;4838952;29;20042;-84
2022/08/17 13:29:06;;;;;;;19.63;17.73;;;22.60;99.90;;;;;;4814734;29;20038;-87
2022/08/17 13:31:34;;;;;;;21.07;19.17;;;22.70;99.90;;;;;;4817276;29;21170;-85
2022/08/17 13:34:15;;;;;;;19.30;17.48;;;22.70;99.90;;;;;;4819896;29;20286;-85
2022/08/17 13:36:43;;;;;;;18.45;16.65;;;22.70;99.90;;;;;;4839913;29;20088;-86
2022/08/17 13:39:14;;;;;;;18.75;17.05;;;22.70;99.90;;;;;;4823088;29;20042;-85
2022/08/17 13:41:48;;;;;;;21.33;19.38;;;22.70;99.90;;;;;;4852262;29;20038;-85
2022/08/17 13:44:39;;;;;;;20.10;18.20;;;22.80;99.90;;;;;;4811648;29;20042;-86
2022/08/17 13:47:16;;;;;;;24.23;22.00;;;22.80;99.90;;;;;;4829083;29;20045;-86